createdAt,value
2023-02-04T00:00:21.024Z,9.65
2023-02-04T00:05:18.530Z,7.60
2023-02-04T00:10:15.139Z,8.10
2023-02-04T00:15:11.722Z,8.45
2023-02-04T00:20:08.541Z,7.90
2023-02-04T00:25:05.311Z,8.88
2023-02-04T00:30:01.736Z,9.40
2023-02-04T00:34:58.110Z,9.07
2023-02-04T00:39:54.493Z,11.50
2023-02-04T00:44:50.867Z,10.45
2023-02-04T00:49:47.306Z,13.60
2023-02-04T00:54:43.711Z,12.07
2023-02-04T00:59:40.141Z,12.98
2023-02-04T01:04:36.563Z,14.35
2023-02-04T01:09:33.851Z,16.17
2023-02-04T01:14:30.264Z,14.40
2023-02-04T01:19:26.729Z,15.07
2023-02-04T01:24:23.148Z,16.92
2023-02-04T01:29:19.522Z,18.15
2023-02-04T01:34:15.910Z,17.35
2023-02-04T01:39:12.309Z,15.80
2023-02-04T01:44:08.693Z,16.15
2023-02-04T01:49:06.756Z,16.33
2023-02-04T01:54:03.915Z,16.98
2023-02-04T01:59:00.427Z,16.08
2023-02-04T02:03:56.866Z,14.93
2023-02-04T02:08:53.369Z,15.20
2023-02-04T02:13:49.841Z,14.07
2023-02-04T02:18:46.342Z,16.65
2023-02-04T02:23:53.656Z,18.70
2023-02-04T02:28:50.941Z,17.83
2023-02-04T02:33:48.178Z,18.58
2023-02-04T02:38:44.619Z,18.60
2023-02-04T02:43:41.046Z,20.52
2023-02-04T02:48:37.494Z,19.48
2023-02-04T02:53:34.168Z,19.48
2023-02-04T02:58:33.099Z,21.02
2023-02-04T03:03:47.601Z,21.35
2023-02-04T03:08:44.692Z,22.10
2023-02-04T03:13:41.845Z,21.08
2023-02-04T03:18:39.116Z,21.67
2023-02-04T03:23:36.890Z,22.13
2023-02-04T03:28:34.372Z,21.17
2023-02-04T03:33:31.501Z,21.88
2023-02-04T03:38:28.055Z,22.58
2023-02-04T03:43:24.436Z,23.27
2023-02-04T03:48:20.858Z,23.13
2023-02-04T03:53:17.239Z,23.63
2023-02-04T03:58:13.621Z,20.92
2023-02-04T04:03:10.096Z,21.60
2023-02-04T04:08:06.585Z,20.27
2023-02-04T04:13:03.055Z,20.92
2023-02-04T04:17:59.450Z,21.45
2023-02-04T04:22:56.083Z,21.73
2023-02-04T04:27:52.530Z,22.13
2023-02-04T04:32:48.909Z,21.02
2023-02-04T04:37:45.369Z,19.95
2023-02-04T04:42:41.853Z,20.23
2023-02-04T04:47:38.493Z,21.45
2023-02-04T04:52:34.875Z,21.25
2023-02-04T04:57:31.590Z,20.20
2023-02-04T05:02:28.007Z,20.98
2023-02-04T05:07:24.545Z,21.33
2023-02-04T05:12:20.958Z,21.15
2023-02-04T05:17:17.535Z,21.48
2023-02-04T05:22:13.983Z,22.08
2023-02-04T05:27:10.376Z,22.60
2023-02-04T05:32:06.856Z,23.42
2023-02-04T05:37:03.430Z,23.98
2023-02-04T05:41:59.855Z,23.27
2023-02-04T05:46:56.264Z,23.80
2023-02-04T05:51:52.629Z,23.88
2023-02-04T05:56:49.405Z,24.67
2023-02-04T06:01:45.779Z,24.08
2023-02-04T06:06:43.031Z,24.20
2023-02-04T06:11:39.696Z,25.17
2023-02-04T06:16:36.487Z,25.02
2023-02-04T06:21:32.885Z,24.85
2023-02-04T06:26:29.486Z,23.20
2023-02-04T06:31:26.025Z,24.50
2023-02-04T06:36:22.458Z,24.88
2023-02-04T06:41:18.919Z,24.40
2023-02-04T06:46:16.018Z,24.67
2023-02-04T06:51:12.564Z,24.40
2023-02-04T06:56:08.980Z,24.88
2023-02-04T07:01:06.235Z,23.23
2023-02-04T07:06:02.678Z,23.60
2023-02-04T07:10:59.166Z,24.13
2023-02-04T07:15:55.687Z,23.85
2023-02-04T07:20:52.403Z,23.98
2023-02-04T07:25:49.045Z,23.20
2023-02-04T07:30:45.958Z,24.05
2023-02-04T07:35:42.446Z,22.02
2023-02-04T07:40:39.173Z,22.17
2023-02-04T07:45:35.636Z,23.50
2023-02-04T07:50:32.428Z,22.42
2023-02-04T07:55:29.065Z,22.25
2023-02-04T08:00:25.514Z,23.17
2023-02-04T08:05:21.968Z,22.70
2023-02-04T08:10:18.482Z,23.67
2023-02-04T08:15:16.006Z,24.00
2023-02-04T08:20:12.773Z,30.08
2023-02-04T08:25:11.315Z,26.75
2023-02-04T08:30:08.753Z,25.30
2023-02-04T08:35:06.627Z,27.27
2023-02-04T08:40:03.236Z,26.30
2023-02-04T08:44:59.681Z,28.77
2023-02-04T08:49:56.129Z,29.58
2023-02-04T08:54:52.565Z,29.17
2023-02-04T08:59:48.995Z,28.52
2023-02-04T09:04:45.391Z,28.90
2023-02-04T09:09:41.767Z,25.08
2023-02-04T09:14:38.207Z,21.50
2023-02-04T09:19:34.638Z,19.83
2023-02-04T09:24:31.021Z,16.73
2023-02-04T09:29:27.398Z,15.70
2023-02-04T09:34:23.996Z,15.73
2023-02-04T09:39:20.376Z,15.38
2023-02-04T09:44:19.887Z,15.60
2023-02-04T09:49:16.666Z,16.25
2023-02-04T09:54:15.718Z,14.25
2023-02-04T09:59:14.648Z,10.38
2023-02-04T10:04:14.915Z,10.18
2023-02-04T10:09:13.538Z,10.45
2023-02-04T10:14:16.584Z,6.63
2023-02-04T10:19:15.539Z,6.72
2023-02-04T10:24:17.617Z,6.75
2023-02-04T10:29:23.802Z,5.75
2023-02-04T10:34:23.395Z,6.82
2023-02-04T10:39:22.742Z,6.18
2023-02-04T10:44:25.423Z,8.18
2023-02-04T10:49:24.289Z,7.20
2023-02-04T10:54:30.315Z,5.25
2023-02-04T10:59:28.939Z,5.28
2023-02-04T11:04:27.008Z,5.70
2023-02-04T11:09:23.447Z,5.68
2023-02-04T11:14:26.701Z,11.52
2023-02-04T11:19:35.709Z,5.25
2023-02-04T11:24:34.201Z,7.10
2023-02-04T11:29:38.083Z,6.35
2023-02-04T11:34:50.949Z,5.18
2023-02-04T11:39:49.281Z,6.07
2023-02-04T11:44:55.416Z,5.28
2023-02-04T11:49:58.734Z,5.25
2023-02-04T11:54:59.719Z,5.32
2023-02-04T11:59:56.270Z,6.03
2023-02-04T12:05:08.317Z,5.57
2023-02-04T12:10:16.609Z,4.70
2023-02-04T12:15:21.463Z,5.13
2023-02-04T12:20:18.034Z,5.25
2023-02-04T12:25:17.033Z,5.45
2023-02-04T12:30:13.669Z,5.22
2023-02-04T12:35:10.101Z,4.90
2023-02-04T12:40:07.461Z,5.22
2023-02-04T12:45:03.993Z,7.10
2023-02-04T12:50:00.756Z,6.45
2023-02-04T12:54:57.142Z,6.13
2023-02-04T12:59:55.484Z,5.88
2023-02-04T13:04:52.643Z,6.22
2023-02-04T13:09:49.245Z,6.22
2023-02-04T13:14:45.673Z,6.05
2023-02-04T13:19:42.108Z,5.88
2023-02-04T13:24:38.709Z,7.60
2023-02-04T13:29:35.114Z,6.18
2023-02-04T13:34:31.529Z,6.05
2023-02-04T13:39:27.952Z,5.18
2023-02-04T13:44:24.532Z,6.07
2023-02-04T13:49:21.633Z,5.05
2023-02-04T13:54:18.014Z,5.18
2023-02-04T13:59:14.499Z,5.22
2023-02-04T14:04:10.886Z,4.88
2023-02-04T14:09:07.306Z,4.72
2023-02-04T14:14:03.787Z,4.30
2023-02-04T14:19:00.484Z,6.30
2023-02-04T14:23:56.939Z,6.53
2023-02-04T14:28:53.458Z,4.75
2023-02-04T14:33:50.460Z,4.70
2023-02-04T14:38:46.889Z,5.70
2023-02-04T14:43:43.284Z,4.95
2023-02-04T14:48:39.880Z,4.60
2023-02-04T14:53:36.266Z,5.15
2023-02-04T14:58:32.660Z,5.25
2023-02-04T15:03:29.212Z,4.68
2023-02-04T15:08:25.709Z,5.25
2023-02-04T15:13:22.194Z,5.53
2023-02-04T15:18:18.654Z,4.78
2023-02-04T15:23:15.087Z,6.47
2023-02-04T15:28:12.281Z,4.85
2023-02-04T15:33:08.814Z,5.72
2023-02-04T15:38:05.429Z,7.38
2023-02-04T15:43:01.900Z,7.82
2023-02-04T15:47:58.327Z,5.30
2023-02-04T15:52:54.895Z,5.68
2023-02-04T15:57:51.339Z,5.60
2023-02-04T16:02:47.776Z,5.63
2023-02-04T16:07:44.187Z,5.90
2023-02-04T16:12:40.614Z,8.23
2023-02-04T16:17:37.024Z,6.25
2023-02-04T16:22:33.610Z,7.85
2023-02-04T16:27:31.720Z,8.85
2023-02-04T16:32:28.939Z,8.25
2023-02-04T16:37:25.401Z,6.13
2023-02-04T16:42:21.906Z,7.93
2023-02-04T16:47:18.356Z,6.50
2023-02-04T16:52:14.763Z,7.90
2023-02-04T16:57:12.153Z,7.28
2023-02-04T17:02:09.960Z,6.00
2023-02-04T17:07:06.461Z,5.93
2023-02-04T17:12:03.097Z,6.35
2023-02-04T17:16:59.523Z,6.65
2023-02-04T17:21:55.941Z,7.80
2023-02-04T17:26:52.393Z,8.32
2023-02-04T17:31:48.926Z,7.55
2023-02-04T17:36:45.424Z,7.85
2023-02-04T17:41:41.793Z,11.32
2023-02-04T17:46:38.240Z,6.90
2023-02-04T17:51:35.199Z,7.07
2023-02-04T17:56:31.751Z,6.95
2023-02-04T18:01:28.506Z,8.27
2023-02-04T18:06:28.793Z,7.72
2023-02-04T18:11:27.991Z,7.68
2023-02-04T18:16:28.518Z,7.63
2023-02-04T18:21:27.769Z,6.72
2023-02-04T18:26:25.710Z,6.80
2023-02-04T18:31:35.054Z,6.80
2023-02-04T18:36:33.191Z,5.80
2023-02-04T18:41:33.683Z,8.57
2023-02-04T18:46:35.537Z,7.68
2023-02-04T18:51:35.015Z,7.70
2023-02-04T18:56:36.617Z,6.50
2023-02-04T19:01:38.799Z,6.90
2023-02-04T19:06:40.439Z,7.07
2023-02-04T19:11:40.634Z,6.57
2023-02-04T19:16:37.121Z,6.55
2023-02-04T19:21:34.494Z,7.40
2023-02-04T19:26:42.341Z,7.22
2023-02-04T19:31:41.444Z,6.20
2023-02-04T19:36:38.439Z,6.80
2023-02-04T19:41:44.246Z,7.30
2023-02-04T19:46:44.149Z,7.50
2023-02-04T19:51:40.814Z,7.72
2023-02-04T19:56:40.094Z,7.20
2023-02-04T20:01:36.866Z,6.97
2023-02-04T20:06:36.361Z,7.35
2023-02-04T20:11:36.197Z,7.75
2023-02-04T20:17:00.583Z,8.00
2023-02-04T20:22:19.988Z,8.70
2023-02-04T20:27:21.378Z,8.23
2023-02-04T20:32:26.119Z,9.73
2023-02-04T20:37:26.913Z,9.30
2023-02-04T20:42:34.301Z,9.20
2023-02-04T20:47:34.823Z,9.38
2023-02-04T20:53:08.219Z,10.93
2023-02-04T20:58:27.222Z,10.80
2023-02-04T21:03:36.877Z,9.38
2023-02-04T21:08:43.866Z,9.15
2023-02-04T21:13:41.058Z,9.15
2023-02-04T21:18:37.796Z,9.68
2023-02-04T21:23:36.091Z,9.77
2023-02-04T21:28:34.027Z,9.60
2023-02-04T21:33:30.997Z,9.52
2023-02-04T21:38:28.332Z,9.57
2023-02-04T21:43:24.942Z,10.50
2023-02-04T21:48:21.970Z,10.18
2023-02-04T21:53:18.350Z,10.50
2023-02-04T21:58:15.253Z,11.15
2023-02-04T22:03:15.995Z,11.20
2023-02-04T22:08:12.950Z,11.13
2023-02-04T22:13:10.597Z,10.63
2023-02-04T22:18:07.232Z,11.43
2023-02-04T22:23:03.844Z,11.38
2023-02-04T22:28:00.560Z,11.88
2023-02-04T22:33:00.605Z,10.70
2023-02-04T22:37:59.972Z,11.18
2023-02-04T22:42:57.535Z,11.25
2023-02-04T22:47:53.928Z,11.88
2023-02-04T22:52:50.589Z,11.48
2023-02-04T22:57:47.143Z,11.18
2023-02-04T23:02:43.628Z,11.05
2023-02-04T23:07:40.123Z,11.60
2023-02-04T23:12:36.507Z,10.25
2023-02-04T23:17:32.927Z,10.68
2023-02-04T23:22:29.297Z,11.77
2023-02-04T23:27:25.834Z,11.63
2023-02-04T23:32:23.359Z,10.20
2023-02-04T23:37:19.742Z,11.07
2023-02-04T23:42:16.149Z,10.85
2023-02-04T23:47:12.554Z,11.45
2023-02-04T23:52:08.994Z,10.68
2023-02-04T23:57:05.745Z,10.73
